Aviation Digital Data Service (ADDS)

Output produced by METARs form (1210 UTC 15 November 2018)
found at http://www.aviationweather.gov/metar/data/
 
TJBQ 151131Z 1512/1612 11006KT P6SM SKC 
     FM151500 08014KT P6SM SCT025 SCT040 
     FM151800 09014G20KT P6SM VCTS SCT025CB BKN050 
     FM152130 10010KT P6SM SCT030 SCT060
       
TJMZ 151131Z 1512/1612 06005KT P6SM FEW030 SCT070 SCT120 
     FM151450 08008KT P6SM FEW025 SCT040 
     FM151800 26009KT P6SM VCTS SCT025CB BKN040 
     FM152300 08006KT P6SM SCT030 SCT060 AMD NOT SKED
       
TJPS 151131Z 1512/1612 07005KT P6SM VCSH FEW025 SCT050 
     FM151450 13012G19KT P6SM SCT030 SCT100 
     FM160000 07008KT P6SM FEW030 AMD NOT SKED
       
TJSJ 151131Z 1512/1612 15004KT P6SM FEW030 FEW080 
     FM151300 09012KT P6SM SCT030 BKN050 
     FM151700 08015G20KT P6SM FEW035 SCT050 
     FM152200 10008KT P6SM VCSH SCT030 SCT060 
     FM160200 11003KT P6SM VCSH SCT025 SCT050